createdAt,value
2022-08-01T00:42:48.829Z,99984.13
2022-08-01T00:43:29.334Z,99979.06
2022-08-01T00:44:14.796Z,99973.16
2022-08-01T00:45:07.852Z,99979.59
2022-08-01T00:47:11.512Z,99975.91
2022-08-01T00:47:57.558Z,99975.91
2022-08-01T00:48:42.121Z,99972.72
2022-08-01T00:49:16.718Z,99972.88
2022-08-01T00:49:52.169Z,99982.97
2022-08-01T00:50:27.224Z,99974.94
2022-08-01T00:51:09.517Z,99978.94
2022-08-01T00:51:58.008Z,99977.25
2022-08-01T00:52:37.968Z,99971.75
2022-08-01T00:53:19.603Z,99973.28
2022-08-01T00:54:03.689Z,99978.63
2022-08-01T00:54:50.833Z,99976.59
2022-08-01T02:22:54.885Z,99978.41
2022-08-01T02:23:30.003Z,99974.22
2022-08-01T03:32:47.676Z,99981.91
2022-08-01T03:33:19.038Z,99978.38
2022-08-01T03:33:50.427Z,99981.41
2022-08-01T03:34:21.806Z,99982.91
2022-08-01T03:34:53.179Z,99983.56
2022-08-01T03:35:24.604Z,99989.25
2022-08-01T03:35:56.001Z,99985.56
2022-08-01T03:36:27.391Z,99995.47
2022-08-01T03:37:07.655Z,99985.56
2022-08-01T03:37:59.909Z,99977.69
2022-08-01T03:38:33.679Z,99988.59
2022-08-01T03:39:05.034Z,99984.91
2022-08-01T03:39:38.327Z,99988.56
2022-08-01T03:40:18.648Z,99989.09
2022-08-01T03:40:54.319Z,99986.94
2022-08-01T03:41:26.308Z,99993.59
2022-08-01T03:41:59.102Z,99992.09
2022-08-01T03:42:34.896Z,99992.09
2022-08-01T03:43:07.362Z,99992.78
2022-08-01T03:43:42.234Z,99993.56
2022-08-01T03:44:16.569Z,99994.09
2022-08-01T03:44:48.870Z,100001.13
2022-08-01T03:45:21.465Z,99992.59
2022-08-01T03:45:52.969Z,99996.75
2022-08-01T03:46:28.033Z,99992.94
2022-08-01T03:47:00.699Z,99992.63
2022-08-01T03:47:33.235Z,99995.31
2022-08-01T03:48:06.306Z,99989.94
2022-08-01T03:48:39.139Z,99991.25
2022-08-01T03:49:21.413Z,99992.25
2022-08-01T03:49:52.934Z,99989.09
2022-08-01T03:50:24.348Z,99987.09
2022-08-01T03:50:55.704Z,99988.59
2022-08-01T03:51:27.008Z,99986.78
2022-08-01T03:51:58.370Z,99996.50
2022-08-01T03:52:29.830Z,99997.34
2022-08-01T03:53:01.280Z,99996.50
2022-08-01T03:53:32.839Z,99993.66
2022-08-01T03:54:04.163Z,99992.97
2022-08-01T03:54:39.523Z,100003.53
2022-08-01T03:55:10.875Z,99998.81
2022-08-01T03:55:42.455Z,99992.31
2022-08-01T03:56:13.834Z,99993.44
2022-08-01T03:56:45.252Z,99996.66
2022-08-01T03:57:36.438Z,99997.81
2022-08-01T03:58:09.829Z,100002.00
2022-08-01T03:58:41.341Z,99992.63
2022-08-01T03:59:12.685Z,99994.28
2022-08-01T03:59:44.029Z,100002.16
2022-08-01T04:00:15.400Z,99996.50
2022-08-01T04:00:46.744Z,99996.16
2022-08-01T04:01:18.136Z,99997.00
2022-08-01T04:01:49.593Z,99997.66
2022-08-01T04:02:23.363Z,99990.31
2022-08-01T04:02:54.717Z,99992.31
2022-08-01T04:03:26.115Z,99988.59
2022-08-01T04:03:58.710Z,99994.97
2022-08-01T04:04:30.085Z,99988.41
2022-08-01T04:05:01.430Z,99992.09
2022-08-01T04:05:32.817Z,99996.75
2022-08-01T04:06:07.010Z,99999.44
2022-08-01T04:06:38.919Z,99992.59
2022-08-01T04:07:36.203Z,99994.25
2022-08-01T04:08:07.516Z,99988.06
2022-08-01T04:08:39.012Z,99995.63
2022-08-01T04:09:13.605Z,99996.91
2022-08-01T04:09:45.387Z,99996.91
2022-08-01T04:10:16.998Z,99997.22
2022-08-01T04:10:50.342Z,100002.28
2022-08-01T04:11:22.165Z,99996.25
2022-08-01T04:11:53.518Z,99997.22
2022-08-01T04:12:24.951Z,99999.91
2022-08-01T04:12:56.251Z,99998.09
2022-08-01T04:13:29.423Z,99996.25
2022-08-01T04:14:09.415Z,99996.59
2022-08-01T04:14:40.837Z,99998.28
2022-08-01T04:15:12.171Z,100005.31
2022-08-01T04:15:43.522Z,99996.28
2022-08-01T04:16:14.873Z,100004.47
2022-08-01T04:16:46.258Z,100001.97
2022-08-01T04:17:17.815Z,100002.81
2022-08-01T04:17:49.164Z,99998.28
2022-08-01T04:18:20.520Z,99999.78
2022-08-01T04:18:51.852Z,100000.97
2022-08-01T04:19:23.201Z,99996.44
2022-08-01T04:19:54.504Z,99999.97
2022-08-01T04:20:25.850Z,100004.31
2022-08-01T04:20:57.326Z,100002.63
2022-08-01T04:21:30.306Z,100002.97
2022-08-01T04:22:01.637Z,100000.97
2022-08-01T04:22:37.175Z,100002.81
2022-08-01T04:23:08.973Z,100001.66
2022-08-01T04:23:41.022Z,100012.34
2022-08-01T04:24:16.180Z,99999.13
2022-08-01T04:24:51.148Z,100010.34
2022-08-01T04:25:29.421Z,100005.31
2022-08-01T04:26:00.751Z,100005.50
2022-08-01T04:26:32.965Z,100015.50
2022-08-01T04:27:06.936Z,100004.94
2022-08-01T04:27:49.125Z,100012.31
2022-08-01T04:28:24.018Z,100008.19
2022-08-01T04:28:55.340Z,100011.69
2022-08-01T04:29:26.789Z,100012.34
2022-08-01T04:29:59.013Z,100014.38
2022-08-01T04:30:31.215Z,100010.50
2022-08-01T04:31:02.587Z,100016.88
2022-08-01T04:31:33.910Z,100021.38
2022-08-01T04:32:05.618Z,100018.38
2022-08-01T04:32:38.724Z,100017.72
2022-08-01T04:33:10.053Z,100014.38
2022-08-01T04:33:41.667Z,100012.66
2022-08-01T04:34:13.662Z,100018.03
2022-08-01T04:34:44.981Z,100016.38
2022-08-01T04:35:23.147Z,100012.31
2022-08-01T04:36:08.151Z,100013.69
2022-08-01T04:36:39.499Z,100007.31
2022-08-01T04:37:10.793Z,100018.88
2022-08-01T04:37:45.260Z,100017.19
2022-08-01T04:38:18.492Z,100017.19
2022-08-01T04:38:50.485Z,100020.88
2022-08-01T04:39:21.837Z,100026.38
2022-08-01T04:39:53.328Z,100015.97
2022-08-01T04:40:24.689Z,100022.66
2022-08-01T04:40:56.066Z,100020.81
2022-08-01T04:41:27.410Z,100019.81
2022-08-01T04:42:01.512Z,100024.34
2022-08-01T04:42:33.733Z,100023.34
2022-08-01T04:43:05.107Z,100019.81
2022-08-01T04:43:37.594Z,100015.47
2022-08-01T04:44:08.950Z,100019.00
2022-08-01T04:44:40.280Z,100020.81
2022-08-01T04:45:11.669Z,100016.13
2022-08-01T04:45:43.421Z,100014.00
2022-08-01T04:46:14.951Z,100017.50
2022-08-01T04:46:46.253Z,100015.97
2022-08-01T04:47:17.716Z,100022.03
2022-08-01T04:47:49.022Z,100022.03
2022-08-01T04:48:20.366Z,100021.03
2022-08-01T04:48:54.214Z,100019.50
2022-08-01T04:49:25.745Z,100021.19
2022-08-01T04:49:57.142Z,100018.81
2022-08-01T04:50:28.683Z,100027.56
2022-08-01T04:51:00.231Z,100023.03
2022-08-01T04:51:31.584Z,100025.69
2022-08-01T04:52:03.298Z,100029.38
2022-08-01T04:52:37.971Z,100027.56
2022-08-01T04:53:13.858Z,100024.88
2022-08-01T04:53:45.711Z,100033.06
2022-08-01T04:54:17.094Z,100030.38
2022-08-01T04:54:48.490Z,100035.59
2022-08-01T04:55:19.815Z,100033.06
2022-08-01T04:55:51.238Z,100030.53
2022-08-01T04:56:22.572Z,100032.53
2022-08-01T04:56:54.352Z,100037.03
2022-08-01T04:57:25.710Z,100030.84
2022-08-01T04:57:57.051Z,100031.38
2022-08-01T04:58:28.422Z,100032.38
2022-08-01T04:58:59.753Z,100027.72
2022-08-01T04:59:31.388Z,100035.59
2022-08-01T05:00:02.831Z,100029.38
2022-08-01T05:00:34.167Z,100035.59
2022-08-01T05:01:05.531Z,100029.22
2022-08-01T05:01:36.994Z,100029.06
2022-08-01T05:02:09.197Z,100032.59
2022-08-01T05:02:40.610Z,100034.25
2022-08-01T05:03:11.936Z,100029.59
2022-08-01T05:03:43.297Z,100035.94
2022-08-01T05:04:14.623Z,100037.09
2022-08-01T05:04:46.266Z,100031.72
2022-08-01T05:05:17.647Z,100030.91
2022-08-01T05:05:48.993Z,100032.75
2022-08-01T05:06:20.322Z,100030.06
2022-08-01T05:06:51.650Z,100028.06
2022-08-01T05:07:23.085Z,100029.75
2022-08-01T05:07:54.439Z,100033.28
2022-08-01T05:08:25.774Z,100033.28
2022-08-01T05:08:57.116Z,100037.25
2022-08-01T05:09:31.190Z,100031.56
2022-08-01T05:10:03.841Z,100032.75
2022-08-01T05:10:37.687Z,100036.09
2022-08-01T05:11:09.046Z,100033.72
2022-08-01T05:11:40.375Z,100043.78
2022-08-01T05:12:11.786Z,100032.38
2022-08-01T05:12:43.125Z,100032.53
2022-08-01T05:13:14.485Z,100032.19
2022-08-01T05:13:45.839Z,100032.53
2022-08-01T05:14:19.691Z,100037.56
2022-08-01T05:14:51.036Z,100035.06
2022-08-01T05:15:22.512Z,100045.59
2022-08-01T05:15:53.977Z,100035.75
2022-08-01T05:16:25.364Z,100041.25
2022-08-01T05:16:56.681Z,100032.38
2022-08-01T05:17:28.009Z,100037.03
2022-08-01T05:17:59.540Z,100035.06
2022-08-01T05:18:30.959Z,100035.91
2022-08-01T05:19:02.350Z,100036.72
2022-08-01T05:19:34.169Z,100039.41
2022-08-01T05:20:05.724Z,100040.22
2022-08-01T05:20:37.129Z,100032.19
2022-08-01T05:21:08.474Z,100036.88
2022-08-01T05:21:39.842Z,100042.09
2022-08-01T05:22:11.291Z,100042.25
2022-08-01T05:22:42.648Z,100036.72
2022-08-01T05:23:42.109Z,100032.38
2022-08-01T05:24:05.688Z,100037.03
2022-08-01T05:24:37.613Z,100035.38
2022-08-01T05:25:12.238Z,100039.72
2022-08-01T05:25:57.771Z,100043.09
2022-08-01T05:26:30.327Z,100041.56
2022-08-01T05:27:03.534Z,100043.09
2022-08-01T05:27:35.047Z,100039.56
2022-08-01T05:28:06.394Z,100038.06
2022-08-01T05:28:37.839Z,100044.41
2022-08-01T05:29:09.186Z,100049.59
2022-08-01T05:29:44.610Z,100047.75
2022-08-01T05:30:16.331Z,100038.72
2022-08-01T05:30:47.685Z,100046.09
2022-08-01T05:31:19.118Z,100041.25
2022-08-01T05:31:50.630Z,100043.78
2022-08-01T05:32:22.025Z,100047.44
2022-08-01T05:32:53.445Z,100048.59
2022-08-01T05:33:24.779Z,100051.13
2022-08-01T05:33:56.270Z,100049.44
2022-08-01T05:34:27.627Z,100046.75
2022-08-01T05:34:58.958Z,100051.44
2022-08-01T05:35:48.907Z,100045.22
2022-08-01T05:36:20.714Z,100052.44
2022-08-01T05:36:55.382Z,100053.25
2022-08-01T05:37:29.094Z,100051.44
2022-08-01T05:38:00.460Z,100046.75
2022-08-01T05:38:31.806Z,100053.97
2022-08-01T05:39:03.113Z,100052.28
2022-08-01T05:39:34.433Z,100052.28
2022-08-01T05:40:06.146Z,100049.44
2022-08-01T05:40:37.532Z,100051.13
2022-08-01T05:41:08.914Z,100050.28
2022-08-01T05:41:40.459Z,100050.13
2022-08-01T05:42:11.773Z,100058.16
2022-08-01T05:42:43.091Z,100051.97
2022-08-01T05:43:14.438Z,100064.34
2022-08-01T05:43:45.821Z,100055.63
2022-08-01T05:44:17.142Z,100051.28
2022-08-01T05:44:48.516Z,100051.13
2022-08-01T05:45:19.880Z,100053.97
2022-08-01T05:45:51.212Z,100060.31
2022-08-01T05:46:22.564Z,100056.78
2022-08-01T05:46:57.660Z,100053.41
2022-08-01T05:47:29.023Z,100062.16
2022-08-01T05:48:00.349Z,100063.28
2022-08-01T05:48:31.678Z,100064.13
2022-08-01T05:49:03.403Z,100058.09
2022-08-01T05:49:34.940Z,100059.06
2022-08-01T05:50:06.597Z,100062.78
2022-08-01T05:50:37.960Z,100066.28
2022-08-01T05:51:09.320Z,100063.59
2022-08-01T05:51:40.810Z,100060.09
2022-08-01T05:52:12.262Z,100058.94
2022-08-01T05:52:43.608Z,100064.28
2022-08-01T05:53:15.033Z,100059.94
2022-08-01T05:53:46.349Z,100059.63
2022-08-01T05:54:17.723Z,100060.47
2022-08-01T05:54:49.048Z,100060.63
2022-08-01T05:55:20.415Z,100062.47
2022-08-01T05:55:51.800Z,100063.28
2022-08-01T05:56:23.120Z,100064.97
2022-08-01T05:56:54.466Z,100068.66
2022-08-01T05:57:25.820Z,100060.78
2022-08-01T05:57:57.326Z,100063.44
2022-08-01T05:58:28.642Z,100065.28
2022-08-01T05:58:59.977Z,100067.81
2022-08-01T05:59:31.316Z,100068.50
2022-08-01T06:00:02.665Z,100071.16
2022-08-01T06:00:34.012Z,100065.81
2022-08-01T06:01:05.441Z,100066.81
2022-08-01T06:01:36.856Z,100066.81
2022-08-01T06:02:08.680Z,100064.97
2022-08-01T06:02:43.107Z,100064.13
2022-08-01T06:03:14.548Z,100069.78
2022-08-01T06:03:45.968Z,100069.13
2022-08-01T06:04:17.341Z,100077.16
2022-08-01T06:04:48.757Z,100065.44
2022-08-01T06:05:20.114Z,100069.78
2022-08-01T06:05:54.582Z,100063.44
2022-08-01T06:06:26.212Z,100071.47
2022-08-01T06:06:57.573Z,100067.44
2022-08-01T06:07:28.920Z,100066.44
2022-08-01T06:08:00.289Z,100067.44
2022-08-01T06:08:31.694Z,100072.47
2022-08-01T06:09:03.013Z,100067.81
2022-08-01T06:09:34.396Z,100062.47
2022-08-01T06:10:06.065Z,100067.50
2022-08-01T06:10:37.412Z,100067.50
2022-08-01T06:11:08.849Z,100064.69
2022-08-01T06:11:40.319Z,100065.66
2022-08-01T06:12:11.747Z,100071.00
2022-08-01T06:12:43.103Z,100075.53
2022-08-01T06:13:14.500Z,100073.69
2022-08-01T06:13:48.725Z,100072.16
2022-08-01T06:14:20.369Z,100068.34
2022-08-01T06:14:51.690Z,100076.53
2022-08-01T06:15:23.059Z,100081.88
2022-08-01T06:15:54.452Z,100075.69
2022-08-01T06:16:25.789Z,100075.16
2022-08-01T06:16:57.161Z,100071.94
2022-08-01T06:17:28.539Z,100081.50
2022-08-01T06:17:59.957Z,100083.19
2022-08-01T06:18:31.327Z,100074.84
2022-08-01T06:19:02.986Z,100065.66
2022-08-01T06:19:34.395Z,100076.53
2022-08-01T06:20:06.035Z,100074.84
2022-08-01T06:20:37.393Z,100073.16
2022-08-01T06:21:08.714Z,100071.31
2022-08-01T06:21:40.083Z,100072.31
2022-08-01T06:22:11.414Z,100077.81
2022-08-01T06:22:42.739Z,100073.16
2022-08-01T06:23:31.560Z,100079.81
2022-08-01T06:24:03.936Z,100077.97
2022-08-01T06:24:35.264Z,100086.88
2022-08-01T06:25:07.022Z,100084.19
2022-08-01T06:25:38.566Z,100076.31
2022-08-01T06:26:09.924Z,100080.84
2022-08-01T06:26:41.483Z,100087.69
2022-08-01T06:27:22.344Z,100082.19
2022-08-01T06:27:54.088Z,100083.31
2022-08-01T06:28:25.491Z,100087.19
2022-08-01T06:28:56.964Z,100083.81
2022-08-01T06:29:28.300Z,100079.16
2022-08-01T06:30:02.751Z,100083.50
2022-08-01T06:30:34.171Z,100081.81
2022-08-01T06:31:05.657Z,100082.66
2022-08-01T06:31:37.020Z,100075.47
2022-08-01T06:32:08.576Z,100079.16
2022-08-01T06:32:40.195Z,100079.16
2022-08-01T06:33:11.553Z,100084.50
2022-08-01T06:33:42.928Z,100078.47
2022-08-01T06:34:14.284Z,100082.81
2022-08-01T06:34:45.633Z,100082.81
2022-08-01T06:35:17.133Z,100082.50
2022-08-01T06:35:48.562Z,100077.28
2022-08-01T06:36:19.934Z,100071.78
2022-08-01T06:36:51.307Z,100068.81
2022-08-01T06:37:22.810Z,100080.66
2022-08-01T06:37:54.159Z,100077.97
2022-08-01T06:38:25.490Z,100068.13
2022-08-01T06:38:56.849Z,100074.16
2022-08-01T06:39:28.168Z,100073.47
2022-08-01T06:40:03.694Z,100076.63
2022-08-01T06:40:35.043Z,100073.78
2022-08-01T06:41:07.969Z,100078.16
2022-08-01T06:41:39.396Z,100083.66
2022-08-01T06:42:10.792Z,100067.44
2022-08-01T06:42:42.158Z,100079.81
2022-08-01T06:43:13.506Z,100079.81
2022-08-01T06:43:44.900Z,100075.78
2022-08-01T06:44:16.235Z,100072.09
2022-08-01T06:44:47.557Z,100082.66
2022-08-01T06:45:18.906Z,100076.63
2022-08-01T06:45:50.243Z,100070.13
2022-08-01T06:46:21.878Z,100075.47
2022-08-01T06:46:53.232Z,100073.63
2022-08-01T06:47:24.582Z,100075.47
2022-08-01T06:47:55.938Z,100080.13
2022-08-01T06:48:27.290Z,100076.78
2022-08-01T06:48:58.741Z,100083.66
2022-08-01T06:49:30.256Z,100081.16
2022-08-01T06:50:01.686Z,100076.63
2022-08-01T06:50:33.250Z,100074.09
2022-08-01T06:51:04.585Z,100079.59
2022-08-01T06:51:35.978Z,100076.41
2022-08-01T06:52:07.709Z,100078.25
2022-08-01T06:52:39.487Z,100083.41
2022-08-01T06:53:10.788Z,100082.44
2022-08-01T06:53:42.173Z,100067.91
2022-08-01T06:54:15.525Z,100079.44
2022-08-01T06:54:46.888Z,100082.13
2022-08-01T06:55:18.216Z,100080.44
2022-08-01T06:55:49.541Z,100078.78
2022-08-01T06:56:20.918Z,100076.09
2022-08-01T06:56:52.253Z,100071.06
2022-08-01T06:57:23.629Z,100073.88
2022-08-01T06:57:54.955Z,100078.41
2022-08-01T06:58:30.885Z,100070.22
2022-08-01T06:59:03.237Z,100073.88
2022-08-01T06:59:34.821Z,100077.22
2022-08-01T07:00:06.814Z,100080.44
2022-08-01T07:00:38.221Z,100071.72
2022-08-01T07:01:09.640Z,100075.78
2022-08-01T07:01:41.131Z,100075.22
2022-08-01T07:02:12.518Z,100080.44
2022-08-01T07:02:43.863Z,100077.59
2022-08-01T07:03:15.186Z,100085.78
2022-08-01T07:03:54.477Z,100075.22
2022-08-01T07:04:26.442Z,100075.22
2022-08-01T07:04:57.851Z,100078.94
2022-08-01T07:05:29.203Z,100072.03
2022-08-01T07:06:00.573Z,100079.22
2022-08-01T07:06:32.489Z,100073.06
2022-08-01T07:07:03.912Z,100076.00
2022-08-01T07:07:35.274Z,100072.19
2022-08-01T07:08:06.609Z,100081.19
2022-08-01T07:08:37.968Z,100077.53
2022-08-01T07:09:14.194Z,100080.34
2022-08-01T07:09:46.158Z,100078.53
2022-08-01T07:10:17.494Z,100074.88
2022-08-01T07:10:48.863Z,100080.94
2022-08-01T07:11:20.461Z,100080.06
2022-08-01T07:11:51.843Z,100073.06
2022-08-01T07:12:23.162Z,100080.22
2022-08-01T07:12:54.631Z,100079.50
2022-08-01T07:13:36.718Z,100079.38
2022-08-01T07:14:15.597Z,100080.34
2022-08-01T07:14:46.963Z,100076.56
2022-08-01T07:15:18.330Z,100074.72
2022-08-01T07:15:49.652Z,100081.75
2022-08-01T07:16:21.030Z,100077.75
2022-08-01T07:16:52.470Z,100069.06
2022-08-01T07:17:23.818Z,100075.78
2022-08-01T07:17:55.150Z,100074.41
2022-08-01T07:18:26.495Z,100080.59
2022-08-01T07:18:57.795Z,100074.41
2022-08-01T07:19:29.099Z,100075.38
2022-08-01T07:20:00.655Z,100071.88
2022-08-01T07:20:36.238Z,100071.34
2022-08-01T07:21:16.364Z,100071.34
2022-08-01T07:22:00.741Z,100068.53
2022-08-01T07:22:35.420Z,100073.72
2022-08-01T07:23:08.573Z,100074.88
2022-08-01T07:23:39.904Z,100068.53
2022-08-01T07:24:17.384Z,100071.34
2022-08-01T07:24:54.508Z,100068.69
2022-08-01T07:25:26.133Z,100077.66
2022-08-01T07:26:00.752Z,100072.31
2022-08-01T07:26:32.488Z,100069.63
2022-08-01T07:27:21.457Z,100071.34
2022-08-01T07:27:55.268Z,100074.03
2022-08-01T07:28:26.618Z,100069.78
2022-08-01T07:28:58.023Z,100075.00
2022-08-01T07:29:29.385Z,100074.88
2022-08-01T07:30:00.732Z,100080.22
2022-08-01T07:30:32.096Z,100077.53
2022-08-01T07:31:03.455Z,100073.72
2022-08-01T07:31:34.812Z,100075.56
2022-08-01T07:32:06.903Z,100076.72
2022-08-01T07:32:38.543Z,100070.03
2022-08-01T07:33:09.879Z,100081.75
2022-08-01T07:33:47.725Z,100077.22
2022-08-01T07:34:20.488Z,100080.94
2022-08-01T07:34:51.967Z,100078.25
2022-08-01T07:35:23.368Z,100074.56
2022-08-01T07:35:54.925Z,100076.72
2022-08-01T07:36:26.344Z,100078.69
2022-08-01T07:36:57.710Z,100071.09
2022-08-01T07:37:45.294Z,100076.63
2022-08-01T07:38:20.214Z,100078.84
2022-08-01T07:38:51.809Z,100078.31
2022-08-01T07:39:23.195Z,100078.97
2022-08-01T07:39:54.626Z,100086.00
2022-08-01T07:40:26.018Z,100078.13
2022-08-01T07:40:57.389Z,100069.94
2022-08-01T07:41:52.914Z,100076.47
2022-08-01T07:42:20.117Z,100075.28
2022-08-01T07:42:51.461Z,100085.00
2022-08-01T07:43:22.845Z,100078.69
2022-08-01T07:43:58.015Z,100079.66
2022-08-01T07:44:31.958Z,100080.66
2022-08-01T07:45:03.333Z,100077.81
2022-08-01T07:45:34.693Z,100077.81
2022-08-01T07:46:06.142Z,100080.34
2022-08-01T07:46:37.470Z,100081.91
2022-08-01T07:47:08.978Z,100084.03
2022-08-01T07:47:40.385Z,100079.66
2022-08-01T07:48:11.752Z,100081.81
2022-08-01T07:48:43.248Z,100089.00
2022-08-01T07:49:14.682Z,100081.97
2022-08-01T07:49:46.074Z,100078.13
2022-08-01T07:50:17.453Z,100085.16
2022-08-01T07:50:48.783Z,100088.00
2022-08-01T07:51:20.142Z,100088.81
2022-08-01T07:52:04.078Z,100081.66
2022-08-01T07:52:35.960Z,100072.78
2022-08-01T07:53:07.445Z,100081.66
2022-08-01T07:53:38.798Z,100087.00
2022-08-01T07:54:10.147Z,100083.47
2022-08-01T07:54:41.496Z,100087.00
2022-08-01T07:55:16.588Z,100083.88
2022-08-01T07:55:48.344Z,100084.34
2022-08-01T07:56:19.757Z,100087.00
2022-08-01T07:56:51.306Z,100087.16
2022-08-01T07:57:22.963Z,100084.19
2022-08-01T07:57:54.331Z,100078.97
2022-08-01T07:58:25.721Z,100080.66
2022-08-01T07:58:57.059Z,100080.81
2022-08-01T07:59:28.422Z,100083.16
2022-08-01T07:59:59.787Z,100082.06
2022-08-01T08:00:31.134Z,100081.09
2022-08-01T08:01:02.565Z,100087.41
2022-08-01T08:01:33.969Z,100091.91
2022-08-01T08:02:05.650Z,100085.00
2022-08-01T08:02:37.365Z,100090.38
2022-08-01T08:03:08.781Z,100090.66
2022-08-01T08:03:40.129Z,100092.22
2022-08-01T08:04:11.473Z,100089.53
2022-08-01T08:04:46.982Z,100090.53
2022-08-01T08:05:57.950Z,100088.53
2022-08-01T08:06:11.484Z,100091.91
2022-08-01T08:06:42.801Z,100092.06
2022-08-01T08:07:14.190Z,100088.38
2022-08-01T08:07:45.539Z,100091.03
2022-08-01T08:08:18.015Z,100093.88
2022-08-01T08:08:49.375Z,100092.22
2022-08-01T08:09:20.735Z,100093.34
2022-08-01T08:09:52.141Z,100087.31
2022-08-01T08:10:23.467Z,100087.16
2022-08-01T08:10:54.813Z,100090.16
2022-08-01T08:11:26.225Z,100090.53
2022-08-01T08:12:01.394Z,100092.06
2022-08-01T08:12:32.987Z,100093.03
2022-08-01T08:13:04.452Z,100090.94
2022-08-01T08:13:36.933Z,100095.56
2022-08-01T08:14:08.283Z,100096.41
2022-08-01T08:14:39.646Z,100103.75
2022-08-01T08:15:11.071Z,100092.06
2022-08-01T08:15:42.390Z,100090.09
2022-08-01T08:16:19.646Z,100100.66
2022-08-01T08:16:51.155Z,100098.25
2022-08-01T08:17:22.525Z,100097.56
2022-08-01T08:17:55.297Z,100097.03
2022-08-01T08:18:26.824Z,100098.41
2022-08-01T08:18:58.148Z,100103.06
2022-08-01T08:19:37.822Z,100100.41
2022-08-01T08:20:10.122Z,100092.66
2022-08-01T08:20:41.436Z,100102.53
2022-08-01T08:21:12.768Z,100103.38
2022-08-01T08:21:44.120Z,100101.53
2022-08-01T08:22:15.480Z,100102.22
2022-08-01T08:22:46.854Z,100101.06
2022-08-01T08:23:41.201Z,100099.22
2022-08-01T08:24:09.549Z,100102.88
2022-08-01T08:24:46.477Z,100098.81
2022-08-01T08:25:18.393Z,100097.66
2022-08-01T08:25:49.918Z,100098.19
2022-08-01T08:26:21.281Z,100102.88
2022-08-01T08:26:53.298Z,100097.06
2022-08-01T08:27:24.650Z,100099.19
2022-08-01T08:27:56.005Z,100099.47
2022-08-01T08:28:28.288Z,100106.06
2022-08-01T08:28:59.715Z,100098.66
2022-08-01T08:29:31.332Z,100102.56
2022-08-01T08:30:03.526Z,100100.41
2022-08-01T08:30:34.892Z,100103.91
2022-08-01T08:31:06.260Z,100099.88
2022-08-01T08:31:50.743Z,100099.03
2022-08-01T08:32:23.819Z,100103.53
2022-08-01T08:32:55.295Z,100099.19
2022-08-01T08:33:26.640Z,100099.47
2022-08-01T08:33:57.970Z,100101.63
2022-08-01T08:34:29.482Z,100099.66
2022-08-01T08:35:00.849Z,100097.00
2022-08-01T08:35:40.456Z,100103.19
2022-08-01T08:36:30.813Z,100103.75
2022-08-01T08:37:02.712Z,100097.25
2022-08-01T08:37:37.961Z,100099.06
2022-08-01T08:38:14.160Z,100106.28
2022-08-01T08:38:46.288Z,100100.81
2022-08-01T08:39:19.776Z,100103.47
2022-08-01T08:39:51.309Z,100097.88
2022-08-01T08:40:22.678Z,100102.41
2022-08-01T08:40:54.096Z,100106.06
2022-08-01T08:41:25.446Z,100104.72
2022-08-01T08:41:59.732Z,100105.44
2022-08-01T08:42:31.090Z,100102.78
2022-08-01T08:43:02.443Z,100100.25
2022-08-01T08:43:33.794Z,100103.75
2022-08-01T08:44:05.693Z,100101.75
2022-08-01T08:44:43.409Z,100102.63
2022-08-01T08:45:15.448Z,100105.44
2022-08-01T08:45:58.960Z,100108.13
2022-08-01T08:46:31.681Z,100100.66
2022-08-01T08:47:05.203Z,100110.91
2022-08-01T08:47:36.584Z,100105.38
2022-08-01T08:48:07.938Z,100109.88
2022-08-01T08:48:40.456Z,100099.47
2022-08-01T08:49:12.373Z,100106.53
2022-08-01T08:49:44.162Z,100116.09
2022-08-01T08:50:20.221Z,100107.34
2022-08-01T08:50:51.631Z,100113.72
2022-08-01T08:51:23.630Z,100115.38
2022-08-01T08:51:55.035Z,100113.88
2022-08-01T08:52:26.490Z,100117.25
2022-08-01T08:52:57.935Z,100107.69
2022-08-01T08:53:34.502Z,100115.03
2022-08-01T08:54:06.525Z,100120.38
2022-08-01T08:54:38.259Z,100122.91
2022-08-01T08:55:09.666Z,100119.38
2022-08-01T08:55:56.099Z,100114.88
2022-08-01T08:56:28.320Z,100117.63
2022-08-01T08:57:00.106Z,100114.09
2022-08-01T08:57:31.561Z,100120.13
2022-08-01T08:58:02.983Z,100120.13
2022-08-01T08:58:34.300Z,100115.09
2022-08-01T08:59:05.673Z,100119.31
2022-08-01T08:59:37.717Z,100119.31
2022-08-01T09:00:09.439Z,100115.66
2022-08-01T09:00:41.011Z,100112.78
2022-08-01T09:01:12.607Z,100109.28
2022-08-01T09:01:43.922Z,100113.78
2022-08-01T09:02:15.265Z,100120.81
2022-08-01T09:02:46.951Z,100119.38
2022-08-01T09:03:18.387Z,100125.03
2022-08-01T09:03:49.830Z,100120.66
2022-08-01T09:04:26.363Z,100116.16
2022-08-01T09:04:57.926Z,100114.63
2022-08-01T09:05:39.060Z,100118.31
2022-08-01T09:06:10.925Z,100118.63
2022-08-01T09:06:42.289Z,100124.97
2022-08-01T09:07:13.648Z,100117.25
2022-08-01T09:07:44.989Z,100118.94
2022-08-01T09:08:16.330Z,100116.94
2022-08-01T09:08:47.691Z,100123.97
2022-08-01T09:09:19.035Z,100120.91
2022-08-01T09:09:51.484Z,100118.06
2022-08-01T09:10:23.108Z,100126.09
2022-08-01T09:10:54.506Z,100122.59
2022-08-01T09:11:26.057Z,100114.72
2022-08-01T09:11:58.205Z,100117.25
2022-08-01T09:12:29.827Z,100126.97
2022-08-01T09:13:04.881Z,100122.81
2022-08-01T09:13:36.227Z,100119.97
2022-08-01T09:14:10.170Z,100120.81
2022-08-01T09:14:47.660Z,100122.81
2022-08-01T09:15:19.311Z,100119.97
2022-08-01T09:15:54.209Z,100116.00
2022-08-01T09:16:25.550Z,100113.19
2022-08-01T09:17:02.657Z,100120.19
2022-08-01T09:17:40.728Z,100115.41
2022-08-01T09:18:30.937Z,100125.56
2022-08-01T09:19:39.515Z,100121.06
2022-08-01T09:20:23.044Z,100127.72
2022-08-01T09:21:07.933Z,100130.69
2022-08-01T09:21:39.373Z,100132.38
2022-08-01T09:22:17.273Z,100126.72
2022-08-01T09:22:48.599Z,100125.34
2022-08-01T09:23:32.629Z,100126.88
2022-08-01T09:24:04.057Z,100129.56
2022-08-01T09:24:35.552Z,100128.53
2022-08-01T09:25:07.659Z,100128.69
2022-08-01T09:25:51.550Z,100130.00
2022-08-01T09:26:32.375Z,100127.34
2022-08-01T09:27:22.228Z,100123.28
2022-08-01T09:28:02.417Z,100125.13
2022-08-01T09:28:33.775Z,100130.00
2022-08-01T09:29:06.912Z,100128.31
2022-08-01T09:29:40.942Z,100134.38
2022-08-01T09:30:13.297Z,100134.19
2022-08-01T09:30:48.707Z,100134.03
2022-08-01T09:31:20.156Z,100131.72
2022-08-01T09:31:51.513Z,100135.22
2022-08-01T09:32:26.045Z,100134.53
2022-08-01T09:32:58.289Z,100133.53
2022-08-01T09:33:46.923Z,100132.00
2022-08-01T09:34:28.464Z,100147.06
2022-08-01T09:35:04.505Z,100142.72
2022-08-01T09:35:43.201Z,100134.84
2022-08-01T09:36:15.376Z,100136.97
2022-08-01T09:36:55.399Z,100130.63
2022-08-01T09:37:37.200Z,100138.66
2022-08-01T09:38:14.891Z,100140.50
2022-08-01T09:38:50.946Z,100144.00
2022-08-01T09:39:29.234Z,100134.47